createdAt,value
2022-11-05T00:00:07.191Z,101319.59
2022-11-05T00:05:30.798Z,101320.03
2022-11-05T00:10:35.628Z,101311.22
2022-11-05T00:16:01.667Z,101317.81
2022-11-05T00:21:05.893Z,101321.91
2022-11-05T00:26:11.465Z,101333.78
2022-11-05T00:31:15.289Z,101325.53
2022-11-05T00:36:16.975Z,101342.41
2022-11-05T00:41:22.083Z,101344.25
2022-11-05T00:46:26.201Z,101343.56
2022-11-05T00:51:30.684Z,101336.56
2022-11-05T00:56:32.370Z,101343.84
2022-11-05T01:01:34.130Z,101343.44
2022-11-05T01:06:39.341Z,101338.41
2022-11-05T01:11:45.296Z,101330.41
2022-11-05T01:16:46.991Z,101333.91
2022-11-05T01:21:51.203Z,101336.41
2022-11-05T01:26:57.290Z,101335.19
2022-11-05T01:32:02.345Z,101338.38
2022-11-05T01:37:06.817Z,101344.38
2022-11-05T01:42:29.383Z,101348.03
2022-11-05T01:53:55.642Z,101336.41
2022-11-05T01:59:31.289Z,101340.56
2022-11-05T02:04:43.765Z,101336.25
2022-11-05T02:10:18.177Z,101337.09
2022-11-05T02:15:52.377Z,101346.59
2022-11-05T02:21:11.089Z,101346.84
2022-11-05T02:26:31.126Z,101351.44
2022-11-05T02:31:36.103Z,101357.19
2022-11-05T02:36:48.131Z,101359.03
2022-11-05T02:42:04.788Z,101360.97
2022-11-05T02:47:18.337Z,101355.91
2022-11-05T02:52:26.759Z,101363.03
2022-11-05T02:57:45.289Z,101357.72
2022-11-05T03:02:52.501Z,101357.72
2022-11-05T03:08:04.460Z,101361.09
2022-11-05T03:13:31.700Z,101353.53
2022-11-05T03:19:12.922Z,101356.31
2022-11-05T03:24:53.073Z,101352.25
2022-11-05T03:30:18.681Z,101358.81
2022-11-05T03:35:44.446Z,101364.53
2022-11-05T03:41:06.114Z,101365.91
2022-11-05T03:46:30.607Z,101368.81
2022-11-05T03:51:37.002Z,101376.22
2022-11-05T03:56:45.867Z,101376.34
2022-11-05T04:01:52.457Z,101380.09
2022-11-05T04:07:15.282Z,101384.81
2022-11-05T04:12:48.536Z,101388.47
2022-11-05T04:18:06.375Z,101380.03
2022-11-05T04:23:34.230Z,101380.56
2022-11-05T04:29:02.473Z,101383.50
2022-11-05T04:34:11.476Z,101383.78
2022-11-05T04:39:13.488Z,101377.34
2022-11-05T04:44:20.997Z,101380.25
2022-11-05T04:49:27.000Z,101392.81
2022-11-05T04:54:34.721Z,101392.69
2022-11-05T04:59:44.955Z,101396.88
2022-11-05T05:05:01.315Z,101404.72
2022-11-05T05:10:14.415Z,101407.25
2022-11-05T05:15:38.506Z,101408.06
2022-11-05T05:21:16.240Z,101408.78
2022-11-05T05:26:23.698Z,101409.72
2022-11-05T05:31:34.065Z,101405.72
2022-11-05T05:36:56.861Z,101415.34
2022-11-05T05:42:08.660Z,101420.81
2022-11-05T05:47:29.550Z,101420.81
2022-11-05T05:52:37.715Z,101421.75
2022-11-05T05:57:40.080Z,101428.16
2022-11-05T06:02:52.992Z,101436.13
2022-11-05T06:07:59.011Z,101432.53
2022-11-05T06:13:03.785Z,101436.97
2022-11-05T06:18:10.736Z,101435.41
2022-11-05T06:23:13.236Z,101435.41
2022-11-05T06:28:17.022Z,101442.66
2022-11-05T06:33:22.731Z,101449.66
2022-11-05T06:38:29.619Z,101453.75
2022-11-05T06:43:39.166Z,101469.81
2022-11-05T06:48:43.531Z,101463.56
2022-11-05T06:53:46.521Z,101475.59
2022-11-05T06:59:05.397Z,101470.84
2022-11-05T07:04:37.956Z,101477.72
2022-11-05T07:09:54.020Z,101478.03
2022-11-05T07:15:01.595Z,101477.25
2022-11-05T07:20:19.599Z,101483.09
2022-11-05T07:25:25.980Z,101485.03
2022-11-05T07:30:33.488Z,101495.41
2022-11-05T07:35:38.001Z,101485.50
2022-11-05T07:40:42.000Z,101491.97
2022-11-05T07:45:46.560Z,101506.13
2022-11-05T07:50:54.748Z,101502.22
2022-11-05T07:55:58.933Z,101504.19
2022-11-05T08:01:00.781Z,101507.88
2022-11-05T08:06:05.764Z,101507.91
2022-11-05T08:11:09.751Z,101515.47
2022-11-05T08:16:12.172Z,101516.91
2022-11-05T08:21:26.331Z,101516.63
2022-11-05T08:26:30.526Z,101517.19
2022-11-05T08:31:38.176Z,101522.97
2022-11-05T08:36:43.212Z,101517.28
2022-11-05T08:41:51.025Z,101515.63
2022-11-05T08:46:53.451Z,101525.13
2022-11-05T08:52:02.766Z,101512.19
2022-11-05T08:57:08.416Z,101520.00
2022-11-05T09:02:16.599Z,101516.72
2022-11-05T09:07:22.975Z,101515.69
2022-11-05T09:12:27.580Z,101521.16
2022-11-05T09:17:29.514Z,101509.78
2022-11-05T09:22:31.305Z,101525.81
2022-11-05T09:27:34.305Z,101519.69
2022-11-05T09:32:38.393Z,101526.56
2022-11-05T09:37:42.885Z,101532.91
2022-11-05T09:42:52.466Z,101541.09
2022-11-05T09:47:59.707Z,101533.63
2022-11-05T09:53:02.159Z,101530.09
2022-11-05T09:58:23.190Z,101542.75
2022-11-05T10:03:29.692Z,101545.16
2022-11-05T10:08:38.005Z,101548.38
2022-11-05T10:13:43.554Z,101549.63
2022-11-05T10:18:52.910Z,101547.53
2022-11-05T10:23:54.843Z,101553.63
2022-11-05T10:28:56.833Z,101553.16
2022-11-05T10:34:02.728Z,101544.69
2022-11-05T10:39:15.472Z,101546.91
2022-11-05T10:44:24.462Z,101539.78
2022-11-05T10:50:12.612Z,101538.81
2022-11-05T10:55:23.266Z,101538.19
2022-11-05T11:00:31.392Z,101546.41
2022-11-05T11:05:39.056Z,101556.44
2022-11-05T11:10:48.189Z,101556.59
2022-11-05T11:15:53.032Z,101567.25
2022-11-05T11:21:05.725Z,101566.63
2022-11-05T11:26:08.381Z,101557.59
2022-11-05T11:31:15.301Z,101554.88
2022-11-05T11:36:25.940Z,101565.97
2022-11-05T11:41:37.075Z,101563.19
2022-11-05T11:46:39.059Z,101556.84
2022-11-05T11:51:49.444Z,101569.97
2022-11-05T11:56:51.866Z,101569.28
2022-11-05T12:02:18.575Z,101562.44
2022-11-05T12:07:23.292Z,101561.13
2022-11-05T12:12:50.332Z,101563.66
2022-11-05T12:18:06.856Z,101564.09
2022-11-05T12:23:34.694Z,101557.78
2022-11-05T12:29:17.137Z,101545.50
2022-11-05T12:34:30.780Z,101547.34
2022-11-05T12:39:39.765Z,101561.72
2022-11-05T12:45:04.915Z,101563.38
2022-11-05T12:50:30.423Z,101550.44
2022-11-05T12:55:38.306Z,101543.00
2022-11-05T13:00:44.445Z,101551.84
2022-11-05T13:05:50.261Z,101543.31
2022-11-05T13:10:57.276Z,101541.22
2022-11-05T13:16:20.435Z,101541.88
2022-11-05T13:21:24.894Z,101541.25
2022-11-05T13:26:31.841Z,101547.59
2022-11-05T13:31:48.081Z,101539.25
2022-11-05T13:37:18.924Z,101544.03
2022-11-05T13:42:54.568Z,101541.25
2022-11-05T13:48:00.537Z,101553.69
2022-11-05T13:53:31.741Z,101534.78
2022-11-05T13:59:07.419Z,101549.97
2022-11-05T14:04:36.266Z,101552.41
2022-11-05T14:09:39.758Z,101555.25
2022-11-05T14:14:45.938Z,101554.47
2022-11-05T14:19:50.695Z,101542.06
2022-11-05T14:24:52.627Z,101538.25
2022-11-05T14:29:54.662Z,101532.56
2022-11-05T14:35:06.418Z,101532.78
2022-11-05T14:40:38.448Z,101546.06
2022-11-05T14:46:00.918Z,101532.84
2022-11-05T14:51:29.247Z,101523.34
2022-11-05T14:56:51.801Z,101521.53
2022-11-05T15:02:13.828Z,101522.91
2022-11-05T15:07:22.823Z,101520.22
2022-11-05T15:12:53.264Z,101528.09
2022-11-05T15:18:02.363Z,101525.28
2022-11-05T15:23:11.281Z,101526.97
2022-11-05T15:28:49.812Z,101529.50
2022-11-05T15:33:51.588Z,101534.69
2022-11-05T15:39:22.935Z,101546.56
2022-11-05T15:44:30.902Z,101540.03
2022-11-05T15:49:32.923Z,101536.00
2022-11-05T15:54:34.910Z,101542.91
2022-11-05T15:59:37.869Z,101541.72
2022-11-05T16:04:39.941Z,101538.88
2022-11-05T16:09:51.389Z,101549.56
2022-11-05T16:15:10.570Z,101545.88
2022-11-05T16:20:29.994Z,101549.16
2022-11-05T16:25:41.875Z,101554.84
2022-11-05T16:31:01.934Z,101574.22
2022-11-05T16:36:04.286Z,101575.06
2022-11-05T16:41:16.870Z,101571.88
2022-11-05T16:46:19.563Z,101556.31
2022-11-05T16:51:28.880Z,101562.16
2022-11-05T16:56:30.916Z,101548.41
2022-11-05T17:01:36.941Z,101551.41
2022-11-05T17:06:41.490Z,101556.44
2022-11-05T17:11:46.110Z,101545.53
2022-11-05T17:16:49.461Z,101544.88
2022-11-05T17:21:53.956Z,101539.66
2022-11-05T17:26:56.717Z,101549.53
2022-11-05T17:32:00.593Z,101529.28
2022-11-05T17:37:03.759Z,101537.63
2022-11-05T17:42:05.714Z,101534.97
2022-11-05T17:47:09.956Z,101528.94
2022-11-05T17:52:11.855Z,101523.06
2022-11-05T17:57:16.143Z,101524.22
2022-11-05T18:02:18.089Z,101528.06
2022-11-05T18:07:20.192Z,101537.09
2022-11-05T18:12:22.213Z,101534.56
2022-11-05T18:17:25.095Z,101533.91
2022-11-05T18:22:26.946Z,101522.69
2022-11-05T18:27:28.779Z,101527.19
2022-11-05T18:32:33.018Z,101542.53
2022-11-05T18:37:39.180Z,101538.22
2022-11-05T18:42:41.672Z,101536.69
2022-11-05T18:47:44.437Z,101535.69
2022-11-05T18:52:51.178Z,101544.72
2022-11-05T18:57:53.169Z,101528.16
2022-11-05T19:02:55.096Z,101531.81
2022-11-05T19:07:58.094Z,101526.78
2022-11-05T19:13:05.065Z,101516.44
2022-11-05T19:18:06.842Z,101504.22
2022-11-05T19:23:08.659Z,101508.03
2022-11-05T19:28:14.059Z,101500.38
2022-11-05T19:33:18.580Z,101502.34
2022-11-05T19:38:21.388Z,101506.19
2022-11-05T19:43:23.155Z,101509.69
2022-11-05T19:48:25.395Z,101507.16
2022-11-05T19:53:29.068Z,101498.66
2022-11-05T19:58:33.211Z,101514.69
2022-11-05T20:03:37.845Z,101506.81
2022-11-05T20:08:59.786Z,101501.63
2022-11-05T20:14:29.877Z,101497.44
2022-11-05T20:19:36.662Z,101510.78
2022-11-05T20:24:40.706Z,101507.44
2022-11-05T20:29:42.545Z,101496.06
2022-11-05T20:34:44.633Z,101487.38
2022-11-05T20:39:49.575Z,101486.69
2022-11-05T20:44:51.217Z,101490.38
2022-11-05T20:49:55.483Z,101493.72
2022-11-05T20:54:59.680Z,101499.44
2022-11-05T21:00:01.500Z,101495.78
2022-11-05T21:05:07.439Z,101498.28
2022-11-05T21:10:12.467Z,101487.59
2022-11-05T21:15:15.856Z,101488.44
2022-11-05T21:20:20.260Z,101488.44
2022-11-05T21:25:24.773Z,101467.91
2022-11-05T21:30:31.446Z,101469.75
2022-11-05T21:35:33.475Z,101473.56
2022-11-05T21:40:35.224Z,101462.03
2022-11-05T21:45:44.171Z,101468.41
2022-11-05T21:51:10.190Z,101468.41
2022-11-05T21:56:42.263Z,101455.03
2022-11-05T22:01:45.607Z,101456.03
2022-11-05T22:06:50.113Z,101444.38
2022-11-05T22:11:54.450Z,101439.84
2022-11-05T22:16:59.065Z,101425.50
2022-11-05T22:22:00.725Z,101433.19
2022-11-05T22:27:10.410Z,101413.34
2022-11-05T22:32:12.424Z,101416.84
2022-11-05T22:37:16.450Z,101425.53
2022-11-05T22:42:18.142Z,101417.53
2022-11-05T22:47:24.771Z,101413.69
2022-11-05T22:52:33.338Z,101408.34
2022-11-05T22:57:38.112Z,101407.66
2022-11-05T23:02:39.940Z,101418.53
2022-11-05T23:08:01.768Z,101396.16
2022-11-05T23:13:04.680Z,101390.66
2022-11-05T23:18:25.087Z,101379.97
2022-11-05T23:23:47.913Z,101367.59
2022-11-05T23:28:54.408Z,101352.44
2022-11-05T23:33:58.193Z,101351.44
2022-11-05T23:38:59.852Z,101353.78
2022-11-05T23:44:22.670Z,101346.63
2022-11-05T23:49:26.611Z,101350.94
2022-11-05T23:54:29.568Z,101330.41
2022-11-05T23:59:33.435Z,101330.25
